Terminal Aerodrome Forecast
Issued by NWS Sterling, VA

Current Version | Previous Version | Graphics & Text | Print | Product List | Glossary On
Versions: 1 2 3 4 5 6 7 8 9 10 11 12 13 14 15 16 17 18 19 20 21 22 23
029
FTUS41 KLWX 140451 AAB
TAFMRB
TAF AMD
KMRB 140451Z 1405/1424 00000KT P6SM OVC007
     FM140800 VRB03KT 1 1/2SM -DZ OVC007
     FM141600 VRB03KT P6SM BKN040
     FM141900 VRB03KT P6SM SCT200=

USA.gov is the U.S. government's official web portal to all federal, state and local government web resources and services.